Hlavní strana
METAR-TAF:

METAR-TAF

Letiště :

Ashe County Airport

West Jefferson, Severní Karolína, Spojené státy americké

zeměpisná šířka: 36-26N, zeměpisná délka: 081-25W, výška: 969 m

Aktuální stav počasí

Zpráva byla vytvořena před 27 minutami, v 22:55 UTC
Západoseverozápadní vítr 8 kt s nárazy do 18 kt
Teplota 0°C
Vlhkost vzduchu 86%
Tlak 1002 hPa
Viditelnost: 11.3 km
Zataženo ve výšce 1600 ft

METAR: KGEV 302255Z AUTO 29008G18KT 7SM OVC016 00/M02 A2959 RMK AO2 T00011018

Čas: 18:22 (23:22 UTC)


TAF: chybějící

Stav a předpovědi počasí z více než 4 000 letišť (zprávy METAR a TAF).

Červené a žluté tečky na mapě představují dostupné meteorologické stanice.

Když kurzor umístíte na tečku, zobrazí se název stanice.

Pak kliknutím zobrazíte stav a předpověď počasí.

Chcete-li změnit mapu, kliknutím na zelené tlačítko se znaménkem +mapu přiblížíte, kliknutím na zelené tlačítko se znaménkem – mapu oddálíte a kliknutím na zelené šipky přejdete na sousední mapy.


METAR-TAF: